createdAt,value
2018-06-14T00:00:21.326Z,0.00
2018-06-14T00:01:21.311Z,0.00
2018-06-14T00:02:21.300Z,0.00
2018-06-14T00:03:21.278Z,0.00
2018-06-14T00:04:21.269Z,0.00
2018-06-14T00:05:21.261Z,0.00
2018-06-14T00:06:21.251Z,0.00
2018-06-14T00:07:21.228Z,0.00
2018-06-14T00:08:21.207Z,0.00
2018-06-14T00:09:21.187Z,0.00
2018-06-14T00:10:21.180Z,0.00
2018-06-14T00:11:21.161Z,0.00
2018-06-14T00:12:21.148Z,0.00
2018-06-14T00:13:21.132Z,0.00
2018-06-14T00:14:21.114Z,0.00
2018-06-14T00:15:21.097Z,0.00
2018-06-14T00:16:21.088Z,0.00
2018-06-14T00:17:21.111Z,0.00
2018-06-14T00:18:21.063Z,0.00
2018-06-14T00:19:21.036Z,0.00
2018-06-14T00:20:21.026Z,0.00
2018-06-14T00:21:21.009Z,0.00
2018-06-14T00:22:20.998Z,0.00
2018-06-14T00:23:20.986Z,0.00
2018-06-14T00:24:20.971Z,0.00
2018-06-14T00:25:20.953Z,0.00
2018-06-14T00:26:20.938Z,0.00
2018-06-14T00:27:20.921Z,0.00
2018-06-14T00:28:20.911Z,0.00
2018-06-14T00:29:20.886Z,0.00
2018-06-14T00:30:20.870Z,0.00
2018-06-14T00:31:20.867Z,0.00
2018-06-14T00:32:20.850Z,0.00
2018-06-14T00:33:20.831Z,0.00
2018-06-14T00:34:20.825Z,0.00
2018-06-14T00:35:20.802Z,0.00
2018-06-14T00:36:20.784Z,0.00
2018-06-14T00:37:20.768Z,0.00
2018-06-14T00:38:20.752Z,0.00
2018-06-14T00:39:20.742Z,0.00
2018-06-14T00:40:20.725Z,0.00
2018-06-14T00:41:20.709Z,0.00
2018-06-14T00:42:20.695Z,0.00
2018-06-14T00:43:20.678Z,0.00
2018-06-14T00:44:20.670Z,0.00
2018-06-14T00:45:20.641Z,0.00
2018-06-14T00:46:20.642Z,0.00
2018-06-14T00:47:20.623Z,0.00
2018-06-14T00:48:20.606Z,0.00
2018-06-14T00:49:20.584Z,0.00
2018-06-14T00:50:20.577Z,0.00
2018-06-14T00:51:20.571Z,0.00
2018-06-14T00:52:20.543Z,0.00
2018-06-14T00:53:20.526Z,0.00
2018-06-14T00:54:20.507Z,0.00
2018-06-14T00:55:20.501Z,0.00
2018-06-14T00:56:20.488Z,0.00
2018-06-14T00:57:20.471Z,0.00
2018-06-14T00:58:20.451Z,0.00
2018-06-14T00:59:20.441Z,0.00
2018-06-14T01:00:20.429Z,0.00
2018-06-14T01:01:20.410Z,0.00
2018-06-14T01:02:20.454Z,0.00
2018-06-14T01:03:20.379Z,0.00
2018-06-14T01:04:20.362Z,0.00
2018-06-14T01:05:20.352Z,0.00
2018-06-14T01:06:20.428Z,0.00
2018-06-14T01:07:20.313Z,0.00
2018-06-14T01:08:20.370Z,0.00
2018-06-14T01:09:20.282Z,0.00
2018-06-14T01:10:20.365Z,0.00
2018-06-14T01:11:20.247Z,0.00
2018-06-14T01:12:20.333Z,0.00
2018-06-14T01:13:20.221Z,0.00
2018-06-14T01:14:20.259Z,0.00
2018-06-14T01:15:20.193Z,0.00
2018-06-14T01:16:20.173Z,0.00
2018-06-14T01:17:20.157Z,0.00
2018-06-14T01:18:20.214Z,0.00
2018-06-14T01:19:20.126Z,0.00
2018-06-14T01:20:20.135Z,0.00
2018-06-14T01:21:20.093Z,0.00
2018-06-14T01:22:20.196Z,0.00
2018-06-14T01:23:20.066Z,0.00
2018-06-14T01:24:20.099Z,0.00
2018-06-14T01:25:20.039Z,0.00
2018-06-14T01:26:20.067Z,0.00
2018-06-14T01:27:20.010Z,0.00
2018-06-14T01:28:20.087Z,0.00
2018-06-14T01:29:19.969Z,0.00
2018-06-14T01:30:19.963Z,0.00
2018-06-14T01:31:19.937Z,0.00
2018-06-14T01:32:19.933Z,0.00
2018-06-14T01:33:19.911Z,0.00
2018-06-14T01:34:19.892Z,0.00
2018-06-14T01:35:19.885Z,0.00
2018-06-14T01:36:19.880Z,0.00
2018-06-14T01:37:19.844Z,0.00
2018-06-14T01:38:19.879Z,0.00
2018-06-14T01:39:19.805Z,0.00
2018-06-14T01:40:19.797Z,0.00
2018-06-14T01:41:19.777Z,0.00
2018-06-14T01:42:19.764Z,0.00
2018-06-14T01:43:19.749Z,0.00
2018-06-14T01:44:19.733Z,0.00
2018-06-14T01:45:19.719Z,0.00
2018-06-14T01:46:19.700Z,0.00
2018-06-14T01:47:19.682Z,0.00
2018-06-14T01:48:19.668Z,0.00
2018-06-14T01:49:19.657Z,0.00
2018-06-14T01:50:19.640Z,0.00
2018-06-14T01:51:19.620Z,0.00
2018-06-14T01:52:19.602Z,0.00
2018-06-14T01:53:19.586Z,0.00
2018-06-14T01:54:19.567Z,0.00
2018-06-14T01:55:19.557Z,0.00
2018-06-14T01:56:19.542Z,0.00
2018-06-14T01:57:19.523Z,0.00
2018-06-14T01:58:19.508Z,0.00
2018-06-14T01:59:19.493Z,0.00
2018-06-14T02:00:19.487Z,0.00
2018-06-14T02:01:19.466Z,0.00
2018-06-14T02:02:19.447Z,0.00
2018-06-14T02:03:19.432Z,0.00
2018-06-14T02:04:19.418Z,0.00
2018-06-14T02:05:19.392Z,0.00
2018-06-14T02:06:19.386Z,0.00
2018-06-14T02:07:19.371Z,0.00
2018-06-14T02:08:19.355Z,0.00
2018-06-14T02:09:19.342Z,0.00
2018-06-14T02:10:19.326Z,0.00
2018-06-14T02:11:19.296Z,0.00
2018-06-14T02:12:19.291Z,0.00
2018-06-14T02:13:19.271Z,0.00
2018-06-14T02:14:19.254Z,0.00
2018-06-14T02:15:19.242Z,0.00
2018-06-14T02:16:19.228Z,0.00
2018-06-14T02:17:19.215Z,0.00
2018-06-14T02:18:19.186Z,0.00
2018-06-14T02:19:19.174Z,0.00
2018-06-14T02:20:19.158Z,0.00
2018-06-14T02:21:19.150Z,0.00
2018-06-14T02:22:19.126Z,0.00
2018-06-14T02:23:19.109Z,0.00
2018-06-14T02:24:19.100Z,0.00
2018-06-14T02:25:19.077Z,0.00
2018-06-14T02:26:19.077Z,0.00
2018-06-14T02:27:19.051Z,0.00
2018-06-14T02:28:19.032Z,0.00
2018-06-14T02:29:19.016Z,4.00
2018-06-14T02:30:19.007Z,4.00
2018-06-14T02:31:18.989Z,0.00
2018-06-14T02:32:18.976Z,0.00
2018-06-14T02:33:18.946Z,0.00
2018-06-14T02:34:18.939Z,4.00
2018-06-14T02:35:18.921Z,4.00
2018-06-14T02:36:18.901Z,0.00
2018-06-14T02:37:18.902Z,4.00
2018-06-14T02:38:18.867Z,4.00
2018-06-14T02:39:18.851Z,4.00
2018-06-14T02:40:18.835Z,8.00
2018-06-14T02:41:18.817Z,4.00
2018-06-14T02:42:18.810Z,8.00
2018-06-14T02:43:18.822Z,8.00
2018-06-14T02:44:18.773Z,8.00
2018-06-14T02:45:18.756Z,8.00
2018-06-14T02:46:18.743Z,8.00
2018-06-14T02:47:18.721Z,12.00
2018-06-14T02:48:18.709Z,12.00
2018-06-14T02:49:18.692Z,12.00
2018-06-14T02:50:18.676Z,16.00
2018-06-14T02:51:18.659Z,20.00
2018-06-14T02:52:18.641Z,20.00
2018-06-14T02:53:18.630Z,24.00
2018-06-14T02:54:18.612Z,24.00
2018-06-14T02:55:18.595Z,28.00
2018-06-14T02:56:18.580Z,32.00
2018-06-14T02:57:18.564Z,36.00
2018-06-14T02:58:18.541Z,36.00
2018-06-14T02:59:18.529Z,44.00
2018-06-14T03:00:18.510Z,48.00
2018-06-14T03:01:18.487Z,48.00
2018-06-14T03:02:18.478Z,56.00
2018-06-14T03:03:18.467Z,60.00
2018-06-14T03:04:18.439Z,64.00
2018-06-14T03:05:18.430Z,68.00
2018-06-14T03:06:18.409Z,76.00
2018-06-14T03:07:18.395Z,84.00
2018-06-14T03:08:18.385Z,88.00
2018-06-14T03:09:18.355Z,96.00
2018-06-14T03:10:18.342Z,100.00
2018-06-14T03:11:18.337Z,108.00
2018-06-14T03:12:18.312Z,116.00
2018-06-14T03:13:18.291Z,128.00
2018-06-14T03:14:18.280Z,136.00
2018-06-14T03:15:18.256Z,144.00
2018-06-14T03:16:18.249Z,156.00
2018-06-14T03:17:18.224Z,168.00
2018-06-14T03:18:18.208Z,184.00
2018-06-14T03:19:18.199Z,196.00
2018-06-14T03:20:18.181Z,208.00
2018-06-14T03:21:18.165Z,228.00
2018-06-14T03:22:18.147Z,240.00
2018-06-14T03:23:18.130Z,260.00
2018-06-14T03:24:18.111Z,276.00
2018-06-14T03:25:18.102Z,296.00
2018-06-14T03:26:18.079Z,308.00
2018-06-14T03:27:18.062Z,324.00
2018-06-14T03:28:18.051Z,340.00
2018-06-14T03:29:18.067Z,356.00
2018-06-14T03:30:18.008Z,368.00
2018-06-14T03:31:17.997Z,380.00
2018-06-14T03:32:17.978Z,404.00
2018-06-14T03:33:17.962Z,428.00
2018-06-14T03:34:17.943Z,452.00
2018-06-14T03:35:17.924Z,464.00
2018-06-14T03:36:17.911Z,476.00
2018-06-14T03:37:17.909Z,492.00
2018-06-14T03:38:17.880Z,516.00
2018-06-14T03:39:17.857Z,540.00
2018-06-14T03:40:17.844Z,568.00
2018-06-14T03:41:17.828Z,596.00
2018-06-14T03:42:17.808Z,624.00
2018-06-14T03:43:17.786Z,648.00
2018-06-14T03:44:17.777Z,668.00
2018-06-14T03:45:17.760Z,688.00
2018-06-14T03:46:17.742Z,704.00
2018-06-14T03:47:17.732Z,724.00
2018-06-14T03:48:17.707Z,744.00
2018-06-14T03:49:17.696Z,760.00
2018-06-14T03:50:17.676Z,784.00
2018-06-14T03:51:17.659Z,800.00
2018-06-14T03:52:17.642Z,820.00
2018-06-14T03:53:17.620Z,840.00
2018-06-14T03:54:17.607Z,860.00
2018-06-14T03:55:17.592Z,880.00
2018-06-14T03:56:17.576Z,900.00
2018-06-14T03:57:17.556Z,920.00
2018-06-14T03:58:17.573Z,936.00
2018-06-14T03:59:17.525Z,956.00
2018-06-14T04:00:17.512Z,976.00
2018-06-14T04:01:17.490Z,996.00
2018-06-14T04:02:17.480Z,1012.00
2018-06-14T04:03:17.458Z,1028.00
2018-06-14T04:04:17.442Z,1044.00
2018-06-14T04:05:17.419Z,1064.00
2018-06-14T04:06:17.407Z,1084.00
2018-06-14T04:07:17.391Z,1108.00
2018-06-14T04:08:17.375Z,1128.00
2018-06-14T04:09:17.356Z,1148.00
2018-06-14T04:10:17.350Z,1176.00
2018-06-14T04:11:17.372Z,1208.00
2018-06-14T04:12:17.309Z,1236.00
2018-06-14T04:13:17.285Z,1260.00
2018-06-14T04:14:17.272Z,1284.00
2018-06-14T04:15:17.359Z,1304.00
2018-06-14T04:16:17.241Z,1316.00
2018-06-14T04:17:17.248Z,1320.00
2018-06-14T04:18:17.203Z,1324.00
2018-06-14T04:19:17.196Z,1364.00
2018-06-14T04:20:17.171Z,1400.00
2018-06-14T04:21:17.257Z,1448.00
2018-06-14T04:22:17.142Z,1516.00
2018-06-14T04:23:17.154Z,1568.00
2018-06-14T04:24:17.107Z,1608.00
2018-06-14T04:25:17.097Z,1648.00
2018-06-14T04:26:17.078Z,1692.00
2018-06-14T04:27:17.162Z,1732.00
2018-06-14T04:28:17.044Z,1768.00
2018-06-14T04:29:17.031Z,1808.00
2018-06-14T04:30:17.012Z,1836.00
2018-06-14T04:31:17.000Z,1844.00
2018-06-14T04:32:16.977Z,1828.00
2018-06-14T04:33:16.965Z,1820.00
2018-06-14T04:34:16.945Z,1804.00
2018-06-14T04:35:16.930Z,1804.00
2018-06-14T04:36:16.907Z,1808.00
2018-06-14T04:37:16.898Z,1824.00
2018-06-14T04:38:16.879Z,1840.00
2018-06-14T04:39:16.926Z,1868.00
2018-06-14T04:40:16.845Z,1888.00
2018-06-14T04:41:16.835Z,1904.00
2018-06-14T04:42:16.813Z,1916.00
2018-06-14T04:43:16.799Z,1916.00
2018-06-14T04:44:16.781Z,1932.00
2018-06-14T04:45:16.765Z,1972.00
2018-06-14T04:46:16.745Z,2016.00
2018-06-14T04:47:16.733Z,2044.00
2018-06-14T04:48:16.723Z,2072.00
2018-06-14T04:49:16.691Z,2092.00
2018-06-14T04:50:16.693Z,2104.00
2018-06-14T04:51:16.668Z,2108.00
2018-06-14T04:52:16.648Z,2092.00
2018-06-14T04:53:16.639Z,2100.00
2018-06-14T04:54:16.620Z,2120.00
2018-06-14T04:55:16.597Z,2156.00
2018-06-14T04:56:16.591Z,2216.00
2018-06-14T04:57:16.566Z,2280.00
2018-06-14T04:58:16.550Z,2332.00
2018-06-14T04:59:16.534Z,2372.00
2018-06-14T05:00:16.517Z,2416.00
2018-06-14T05:01:16.508Z,2460.00
2018-06-14T05:02:16.482Z,2500.00
2018-06-14T05:03:16.469Z,2524.00
2018-06-14T05:04:16.458Z,2464.00
2018-06-14T05:05:16.436Z,2508.00
2018-06-14T05:06:16.417Z,2540.00
2018-06-14T05:07:16.408Z,2588.00
2018-06-14T05:08:16.391Z,2612.00
2018-06-14T05:09:16.376Z,2612.00
2018-06-14T05:10:16.359Z,2604.00
2018-06-14T05:11:16.343Z,2632.00
2018-06-14T05:12:16.325Z,2656.00
2018-06-14T05:13:16.308Z,2660.00
2018-06-14T05:14:16.285Z,2668.00
2018-06-14T05:15:16.270Z,2696.00
2018-06-14T05:16:16.260Z,2732.00
2018-06-14T05:17:16.251Z,2760.00
2018-06-14T05:18:16.236Z,2792.00
2018-06-14T05:19:16.212Z,2804.00
2018-06-14T05:20:16.201Z,2788.00
2018-06-14T05:21:16.174Z,2744.00
2018-06-14T05:22:16.163Z,2688.00
2018-06-14T05:23:16.145Z,2644.00
2018-06-14T05:24:16.132Z,2628.00
2018-06-14T05:25:16.116Z,2664.00
2018-06-14T05:26:16.101Z,2704.00
2018-06-14T05:27:16.078Z,2716.00
2018-06-14T05:28:16.064Z,2728.00
2018-06-14T05:29:16.053Z,2736.00
2018-06-14T05:30:16.040Z,2748.00
2018-06-14T05:31:16.024Z,2768.00
2018-06-14T05:32:16.010Z,2792.00
2018-06-14T05:33:15.985Z,2828.00
2018-06-14T05:34:15.972Z,2848.00
2018-06-14T05:35:15.958Z,2892.00
2018-06-14T05:36:15.946Z,2952.00
2018-06-14T05:37:15.930Z,2996.00
2018-06-14T05:38:16.024Z,3000.00
2018-06-14T05:39:15.896Z,3108.00
2018-06-14T05:40:15.893Z,3164.00
2018-06-14T05:41:15.874Z,3216.00
2018-06-14T05:42:15.878Z,3260.00
2018-06-14T05:43:15.840Z,3288.00
2018-06-14T05:44:15.821Z,3304.00
2018-06-14T05:45:15.818Z,3320.00
2018-06-14T05:46:15.792Z,3352.00
2018-06-14T05:47:15.774Z,3376.00
2018-06-14T05:48:15.757Z,3404.00
2018-06-14T05:49:15.741Z,3432.00
2018-06-14T05:50:15.735Z,3444.00
2018-06-14T05:51:15.715Z,3444.00
2018-06-14T05:52:15.706Z,3436.00
2018-06-14T05:53:15.683Z,3456.00
2018-06-14T05:54:15.677Z,3480.00
2018-06-14T05:55:15.664Z,3444.00
2018-06-14T05:56:15.641Z,3428.00
2018-06-14T05:57:15.628Z,3524.00
2018-06-14T05:58:15.608Z,3580.00
2018-06-14T05:59:15.593Z,3628.00
2018-06-14T06:00:15.580Z,3676.00
2018-06-14T06:01:15.561Z,3724.00
2018-06-14T06:02:15.549Z,3800.00
2018-06-14T06:03:15.542Z,3868.00
2018-06-14T06:04:15.525Z,3848.00
2018-06-14T06:05:15.517Z,3864.00
2018-06-14T06:06:15.497Z,3908.00
2018-06-14T06:07:15.481Z,3936.00
2018-06-14T06:08:15.490Z,3952.00
2018-06-14T06:09:15.449Z,3976.00
2018-06-14T06:10:15.433Z,3988.00
2018-06-14T06:11:15.417Z,4056.00
2018-06-14T06:12:15.401Z,4136.00
2018-06-14T06:13:15.384Z,4168.00
2018-06-14T06:14:15.372Z,4280.00
2018-06-14T06:15:15.363Z,4340.00
2018-06-14T06:16:15.349Z,4436.00
2018-06-14T06:17:15.330Z,4472.00
2018-06-14T06:18:15.462Z,4592.00
2018-06-14T06:19:15.301Z,4716.00
2018-06-14T06:20:15.293Z,4800.00
2018-06-14T06:21:15.271Z,4872.00
2018-06-14T06:22:15.363Z,4948.00
2018-06-14T06:23:15.239Z,4808.00
2018-06-14T06:24:15.324Z,4912.00
2018-06-14T06:25:15.210Z,4884.00
2018-06-14T06:26:15.318Z,4868.00
2018-06-14T06:27:15.187Z,4884.00
2018-06-14T06:28:15.268Z,4964.00
2018-06-14T06:29:15.154Z,5000.00
2018-06-14T06:30:15.184Z,4936.00
2018-06-14T06:31:15.120Z,4816.00
2018-06-14T06:32:15.110Z,4944.00
2018-06-14T06:33:15.167Z,4948.00
2018-06-14T06:34:15.082Z,5004.00
2018-06-14T06:35:15.067Z,5044.00
2018-06-14T06:36:15.063Z,5084.00
2018-06-14T06:37:15.038Z,5164.00
2018-06-14T06:38:15.031Z,5196.00
2018-06-14T06:39:15.030Z,5116.00
2018-06-14T06:40:15.003Z,5020.00
2018-06-14T06:41:14.992Z,4972.00
2018-06-14T06:42:14.973Z,4952.00
2018-06-14T06:43:14.957Z,4992.00
2018-06-14T06:44:14.954Z,5148.00
2018-06-14T06:45:14.932Z,5264.00
2018-06-14T06:46:14.919Z,5320.00
2018-06-14T06:47:14.899Z,5368.00
2018-06-14T06:48:14.889Z,5496.00
2018-06-14T06:49:14.868Z,5516.00
2018-06-14T06:50:14.855Z,5588.00
2018-06-14T06:51:14.845Z,5644.00
2018-06-14T06:52:14.830Z,5672.00
2018-06-14T06:53:14.826Z,5728.00
2018-06-14T06:54:14.811Z,5920.00
2018-06-14T06:55:14.792Z,6096.00
2018-06-14T06:56:14.779Z,6220.00
2018-06-14T06:57:14.767Z,6312.00
2018-06-14T06:58:14.758Z,6364.00
2018-06-14T06:59:14.747Z,6376.00
2018-06-14T07:00:14.729Z,6516.00
2018-06-14T07:01:14.714Z,6512.00
2018-06-14T07:02:14.696Z,6608.00
2018-06-14T07:03:14.684Z,6608.00
2018-06-14T07:04:14.671Z,6476.00
2018-06-14T07:05:14.660Z,6592.00
2018-06-14T07:06:14.721Z,6672.00
2018-06-14T07:07:14.637Z,6804.00
2018-06-14T07:08:14.621Z,6856.00
2018-06-14T07:09:14.605Z,6752.00
2018-06-14T07:10:14.589Z,6840.00
2018-06-14T07:11:14.583Z,6832.00
2018-06-14T07:12:14.567Z,6944.00
2018-06-14T07:13:14.560Z,6964.00
2018-06-14T07:14:14.543Z,6912.00
2018-06-14T07:15:14.524Z,6904.00
2018-06-14T07:16:14.518Z,6816.00
2018-06-14T07:17:14.503Z,6876.00
2018-06-14T07:18:14.494Z,6892.00
2018-06-14T07:19:14.481Z,7156.00
2018-06-14T07:20:14.469Z,7240.00
2018-06-14T07:21:14.453Z,7240.00
2018-06-14T07:22:14.443Z,7364.00
2018-06-14T07:23:14.431Z,7428.00
2018-06-14T07:24:14.417Z,7604.00
2018-06-14T07:25:14.417Z,7744.00
2018-06-14T07:26:14.389Z,7700.00
2018-06-14T07:27:14.376Z,7788.00
2018-06-14T07:28:14.370Z,7888.00
2018-06-14T07:29:14.366Z,8024.00
2018-06-14T07:30:14.336Z,8060.00
2018-06-14T07:31:14.328Z,8180.00
2018-06-14T07:32:14.318Z,8096.00
2018-06-14T07:33:14.309Z,8332.00
2018-06-14T07:34:14.292Z,8360.00
2018-06-14T07:35:14.280Z,8248.00
2018-06-14T07:36:14.277Z,8308.00
2018-06-14T07:37:14.282Z,8272.00
2018-06-14T07:38:14.242Z,8392.00
2018-06-14T07:39:14.229Z,8520.00
2018-06-14T07:40:14.219Z,8596.00
2018-06-14T07:41:14.208Z,8604.00
2018-06-14T07:42:14.197Z,8776.00
2018-06-14T07:43:14.198Z,8788.00
2018-06-14T07:44:14.168Z,8924.00
2018-06-14T07:45:14.258Z,9000.00
2018-06-14T07:46:14.147Z,9236.00
2018-06-14T07:47:14.140Z,9276.00
2018-06-14T07:48:14.128Z,9268.00
2018-06-14T07:49:14.183Z,9240.00
2018-06-14T07:50:14.100Z,9244.00
2018-06-14T07:51:14.096Z,9128.00
2018-06-14T07:52:14.081Z,9076.00
2018-06-14T07:53:14.168Z,9176.00
2018-06-14T07:54:14.095Z,9104.00
2018-06-14T07:55:14.054Z,9012.00
2018-06-14T07:56:14.035Z,9068.00
2018-06-14T07:57:14.019Z,9384.00
2018-06-14T07:58:14.015Z,9580.00
2018-06-14T07:59:14.013Z,9744.00
2018-06-14T08:00:13.994Z,9640.00
2018-06-14T08:01:13.973Z,9484.00
2018-06-14T08:02:13.962Z,9548.00
2018-06-14T08:03:13.958Z,9544.00
2018-06-14T08:04:13.941Z,9784.00
2018-06-14T08:05:13.933Z,9904.00
2018-06-14T08:06:13.919Z,9764.00
2018-06-14T08:07:13.913Z,9668.00
2018-06-14T08:08:13.897Z,9956.00
2018-06-14T08:09:13.883Z,9912.00
2018-06-14T08:10:13.878Z,10164.00
2018-06-14T08:11:13.870Z,10224.00
2018-06-14T08:12:13.921Z,10304.00
2018-06-14T08:13:13.842Z,10164.00
2018-06-14T08:14:13.832Z,9988.00
2018-06-14T08:15:13.826Z,10132.00
2018-06-14T08:16:13.813Z,10344.00
2018-06-14T08:17:13.794Z,10752.00
2018-06-14T08:18:13.790Z,10964.00
2018-06-14T08:19:13.778Z,10312.00
2018-06-14T08:20:13.775Z,10472.00
2018-06-14T08:21:13.762Z,10436.00
2018-06-14T08:22:13.740Z,10548.00
2018-06-14T08:23:13.742Z,10440.00
2018-06-14T08:24:13.724Z,10528.00
2018-06-14T08:25:13.718Z,10532.00
2018-06-14T08:26:13.708Z,10368.00
2018-06-14T08:27:13.692Z,10312.00
2018-06-14T08:28:13.680Z,10580.00
2018-06-14T08:29:13.675Z,8252.00
2018-06-14T08:30:13.660Z,9800.00
2018-06-14T08:31:13.647Z,11068.00
2018-06-14T08:32:13.634Z,11308.00
2018-06-14T08:33:13.629Z,11484.00
2018-06-14T08:34:13.621Z,10416.00
2018-06-14T08:35:13.612Z,10720.00
2018-06-14T08:36:13.597Z,10676.00
2018-06-14T08:37:13.600Z,10436.00
2018-06-14T08:38:13.580Z,10340.00
2018-06-14T08:39:13.573Z,10400.00
2018-06-14T08:40:13.561Z,10580.00
2018-06-14T08:41:13.544Z,10756.00
2018-06-14T08:42:13.539Z,11456.00
2018-06-14T08:43:13.526Z,10876.00
2018-06-14T08:44:13.518Z,10808.00
2018-06-14T08:45:13.512Z,10944.00
2018-06-14T08:46:13.490Z,10896.00
2018-06-14T08:47:13.487Z,10828.00
2018-06-14T08:48:13.480Z,11060.00
2018-06-14T08:49:13.464Z,11208.00
2018-06-14T08:50:13.451Z,10948.00
2018-06-14T08:51:13.442Z,10828.00
2018-06-14T08:52:13.432Z,12476.00
2018-06-14T08:53:13.428Z,11416.00
2018-06-14T08:54:13.416Z,12764.00
2018-06-14T08:55:13.402Z,12220.00
2018-06-14T08:56:13.397Z,12392.00
2018-06-14T08:57:13.383Z,12192.00
2018-06-14T08:58:13.376Z,12736.00
2018-06-14T08:59:13.371Z,12408.00
2018-06-14T09:00:13.362Z,11600.00
2018-06-14T09:01:13.348Z,8780.00
2018-06-14T09:02:13.342Z,8512.00
2018-06-14T09:03:13.333Z,12176.00
2018-06-14T09:04:13.323Z,12008.00
2018-06-14T09:05:13.310Z,9068.00
2018-06-14T09:06:13.300Z,12856.00
2018-06-14T09:07:13.302Z,12552.00
2018-06-14T09:08:13.287Z,9412.00
2018-06-14T09:09:13.275Z,8748.00
2018-06-14T09:10:13.270Z,9916.00
2018-06-14T09:11:13.257Z,8780.00
2018-06-14T09:12:13.247Z,10324.00
2018-06-14T09:13:13.241Z,12056.00
2018-06-14T09:14:13.274Z,12596.00
2018-06-14T09:15:13.234Z,7416.00
2018-06-14T09:16:13.219Z,6584.00
2018-06-14T09:17:13.206Z,6700.00
2018-06-14T09:18:13.202Z,7896.00
2018-06-14T09:19:13.188Z,7796.00
2018-06-14T09:20:13.184Z,7340.00
2018-06-14T09:21:13.166Z,11160.00
2018-06-14T09:22:13.158Z,14236.00
2018-06-14T09:23:13.154Z,14412.00
2018-06-14T09:24:13.142Z,8260.00
2018-06-14T09:25:13.142Z,15168.00
2018-06-14T09:26:13.122Z,15020.00
2018-06-14T09:27:13.110Z,20160.00
2018-06-14T09:28:13.108Z,23328.00
2018-06-14T09:29:13.097Z,25120.00
2018-06-14T09:30:13.085Z,24608.00
2018-06-14T09:31:13.087Z,21888.00
2018-06-14T09:32:13.081Z,11528.00
2018-06-14T09:33:13.065Z,8016.00
2018-06-14T09:34:13.055Z,38560.00
2018-06-14T09:35:13.053Z,44448.00
2018-06-14T09:36:13.043Z,45504.00
2018-06-14T09:37:13.030Z,39648.00
2018-06-14T09:38:13.018Z,45952.00
2018-06-14T09:39:13.017Z,45632.00
2018-06-14T09:40:13.015Z,46816.00
2018-06-14T09:41:13.001Z,48352.00
2018-06-14T09:42:12.992Z,47328.00
2018-06-14T09:43:12.987Z,45024.00
2018-06-14T09:44:12.982Z,41728.00
2018-06-14T09:45:12.982Z,41152.00
2018-06-14T09:46:12.968Z,25920.00
2018-06-14T09:47:12.956Z,38080.00
2018-06-14T09:48:12.956Z,9764.00
2018-06-14T09:49:12.947Z,9060.00
2018-06-14T09:50:12.939Z,8608.00
2018-06-14T09:51:12.934Z,8436.00
2018-06-14T09:52:12.931Z,10288.00
2018-06-14T09:53:12.921Z,7352.00
2018-06-14T09:54:12.905Z,7588.00
2018-06-14T09:55:12.912Z,18720.00
2018-06-14T09:56:12.903Z,37344.00
2018-06-14T09:57:12.888Z,40544.00
2018-06-14T09:58:12.882Z,25952.00
2018-06-14T09:59:12.876Z,7300.00
2018-06-14T10:00:12.871Z,7848.00
2018-06-14T10:01:12.862Z,8680.00
2018-06-14T10:02:12.855Z,9552.00
2018-06-14T10:03:12.851Z,9904.00
2018-06-14T10:04:12.839Z,19808.00
2018-06-14T10:05:12.827Z,26720.00
2018-06-14T10:06:12.845Z,6372.00
2018-06-14T10:07:12.821Z,6292.00
2018-06-14T10:08:12.819Z,6680.00
2018-06-14T10:09:12.796Z,10036.00
2018-06-14T10:10:12.790Z,6984.00
2018-06-14T10:11:12.779Z,7704.00
2018-06-14T10:12:12.772Z,27552.00
2018-06-14T10:13:12.763Z,11896.00
2018-06-14T10:14:12.762Z,7560.00
2018-06-14T10:15:12.744Z,7204.00
2018-06-14T10:16:12.786Z,7524.00
2018-06-14T10:17:12.727Z,9176.00
2018-06-14T10:18:12.827Z,7992.00
2018-06-14T10:19:12.718Z,7952.00
2018-06-14T10:20:12.704Z,6648.00
2018-06-14T10:21:12.701Z,6444.00
2018-06-14T10:22:12.683Z,6232.00
2018-06-14T10:23:12.682Z,5956.00
2018-06-14T10:24:12.669Z,7420.00
2018-06-14T10:25:12.653Z,6284.00
2018-06-14T10:26:12.699Z,6116.00
2018-06-14T10:27:12.640Z,5996.00
2018-06-14T10:28:12.629Z,7776.00
2018-06-14T10:29:12.622Z,10180.00
2018-06-14T10:30:12.658Z,6936.00
2018-06-14T10:31:12.603Z,6332.00
2018-06-14T10:32:12.592Z,6152.00
2018-06-14T10:33:12.587Z,6704.00
2018-06-14T10:34:12.584Z,6032.00
2018-06-14T10:35:12.572Z,6868.00
2018-06-14T10:36:12.562Z,6244.00
2018-06-14T10:37:12.582Z,8800.00
2018-06-14T10:38:12.535Z,8916.00
2018-06-14T10:39:12.531Z,12680.00
2018-06-14T10:40:12.528Z,10672.00
2018-06-14T10:41:12.555Z,7920.00
2018-06-14T10:42:12.497Z,7612.00
2018-06-14T10:43:12.488Z,8260.00
2018-06-14T10:44:12.478Z,9128.00
2018-06-14T10:45:12.470Z,8512.00
2018-06-14T10:46:12.457Z,8872.00
2018-06-14T10:47:12.451Z,12920.00
2018-06-14T10:48:12.448Z,8136.00
2018-06-14T10:49:12.434Z,8120.00
2018-06-14T10:50:12.428Z,9720.00
2018-06-14T10:51:12.412Z,12548.00
2018-06-14T10:52:12.405Z,12136.00
2018-06-14T10:53:12.403Z,8200.00
2018-06-14T10:54:12.390Z,8496.00
2018-06-14T10:55:12.380Z,10848.00
2018-06-14T10:56:12.370Z,13344.00
2018-06-14T10:57:12.358Z,13152.00
2018-06-14T10:58:12.358Z,12776.00
2018-06-14T10:59:12.345Z,11808.00
2018-06-14T11:00:12.332Z,11952.00
2018-06-14T11:01:12.336Z,11772.00
2018-06-14T11:02:12.323Z,12368.00
2018-06-14T11:03:12.310Z,10068.00
2018-06-14T11:04:12.296Z,10628.00
2018-06-14T11:05:12.291Z,6808.00
2018-06-14T11:06:12.288Z,6944.00
2018-06-14T11:07:12.279Z,7364.00
2018-06-14T11:08:12.268Z,12064.00
2018-06-14T11:09:12.267Z,11644.00
2018-06-14T11:10:12.248Z,11400.00
2018-06-14T11:11:12.250Z,11692.00
2018-06-14T11:12:12.238Z,11292.00
2018-06-14T11:13:12.236Z,11012.00
2018-06-14T11:14:12.215Z,11152.00
2018-06-14T11:15:12.213Z,10960.00
2018-06-14T11:16:12.200Z,8816.00
2018-06-14T11:17:12.194Z,9736.00
2018-06-14T11:18:12.183Z,6832.00
2018-06-14T11:19:12.177Z,8344.00
2018-06-14T11:20:12.171Z,10888.00
2018-06-14T11:21:12.151Z,11112.00
2018-06-14T11:22:12.148Z,11500.00
2018-06-14T11:23:12.149Z,11156.00
2018-06-14T11:24:12.133Z,11676.00
2018-06-14T11:25:12.123Z,11920.00
2018-06-14T11:26:12.123Z,11496.00
2018-06-14T11:27:12.114Z,11256.00
2018-06-14T11:28:12.100Z,10452.00
2018-06-14T11:29:12.094Z,10160.00
2018-06-14T11:30:12.083Z,10060.00
2018-06-14T11:31:12.075Z,10884.00
2018-06-14T11:32:12.063Z,8496.00
2018-06-14T11:33:12.058Z,8692.00
2018-06-14T11:34:12.048Z,10916.00
2018-06-14T11:35:12.047Z,8260.00
2018-06-14T11:36:12.035Z,7352.00
2018-06-14T11:37:12.029Z,7516.00
2018-06-14T11:38:12.021Z,10712.00
2018-06-14T11:39:12.012Z,7748.00
2018-06-14T11:40:12.000Z,8156.00
2018-06-14T11:41:11.994Z,7928.00
2018-06-14T11:42:11.993Z,7448.00
2018-06-14T11:43:11.978Z,7832.00
2018-06-14T11:44:11.977Z,6616.00
2018-06-14T11:45:11.964Z,6668.00
2018-06-14T11:46:11.958Z,7428.00
2018-06-14T11:47:11.943Z,9260.00
2018-06-14T11:48:11.969Z,8204.00
2018-06-14T11:49:11.940Z,9152.00
2018-06-14T11:50:11.925Z,9344.00
2018-06-14T11:51:11.903Z,8452.00
2018-06-14T11:52:11.904Z,7976.00
2018-06-14T11:53:11.887Z,8060.00
2018-06-14T11:54:11.964Z,8364.00
2018-06-14T11:55:11.876Z,9260.00
2018-06-14T11:56:11.875Z,9028.00
2018-06-14T11:57:11.863Z,8900.00
2018-06-14T11:58:11.844Z,8560.00
2018-06-14T11:59:11.835Z,8680.00
2018-06-14T12:00:11.834Z,9020.00
2018-06-14T12:01:11.858Z,9340.00
2018-06-14T12:02:11.808Z,8948.00
2018-06-14T12:03:11.801Z,9084.00
2018-06-14T12:04:11.788Z,8900.00
2018-06-14T12:05:11.786Z,8864.00
2018-06-14T12:06:11.789Z,8732.00
2018-06-14T12:07:11.769Z,8772.00
2018-06-14T12:08:11.756Z,8684.00
2018-06-14T12:09:11.753Z,8540.00
2018-06-14T12:10:11.743Z,8868.00
2018-06-14T12:11:11.728Z,8584.00
2018-06-14T12:12:11.731Z,8480.00
2018-06-14T12:13:11.721Z,8516.00
2018-06-14T12:14:11.711Z,7756.00
2018-06-14T12:15:11.712Z,7016.00
2018-06-14T12:16:11.692Z,7056.00
2018-06-14T12:17:11.683Z,7444.00
2018-06-14T12:18:11.673Z,7848.00
2018-06-14T12:19:11.668Z,7584.00
2018-06-14T12:20:11.658Z,8252.00